createdAt,value
2019-02-19T00:00:49.207Z,98.80
2019-02-19T00:03:19.295Z,98.60
2019-02-19T00:05:48.483Z,98.80
2019-02-19T00:08:17.686Z,99.10
2019-02-19T00:10:47.101Z,98.80
2019-02-19T00:13:16.151Z,98.80
2019-02-19T00:15:45.277Z,99.30
2019-02-19T00:18:14.293Z,99.10
2019-02-19T00:20:43.173Z,99.20
2019-02-19T00:23:12.496Z,99.40
2019-02-19T00:25:41.749Z,99.30
2019-02-19T00:28:10.645Z,99.60
2019-02-19T00:30:39.473Z,99.50
2019-02-19T00:33:08.942Z,99.30
2019-02-19T00:35:41.267Z,99.40
2019-02-19T00:38:10.506Z,99.40
2019-02-19T00:40:58.559Z,99.40
2019-02-19T00:43:31.702Z,99.60
2019-02-19T00:46:00.691Z,99.70
2019-02-19T00:48:29.748Z,99.70
2019-02-19T00:50:58.963Z,99.70
2019-02-19T00:53:27.849Z,99.70
2019-02-19T00:55:56.775Z,99.90
2019-02-19T00:58:26.357Z,99.80
2019-02-19T01:00:55.237Z,99.80
2019-02-19T01:03:24.070Z,99.60
2019-02-19T01:05:54.797Z,99.70
2019-02-19T01:08:23.793Z,99.80
2019-02-19T01:11:11.868Z,99.60
2019-02-19T01:13:41.051Z,99.70
2019-02-19T01:16:10.734Z,99.70
2019-02-19T01:18:40.741Z,99.50
2019-02-19T01:21:09.765Z,99.40
2019-02-19T01:23:38.598Z,99.40
2019-02-19T01:26:07.743Z,99.50
2019-02-19T01:28:37.242Z,99.60
2019-02-19T01:31:06.130Z,99.50
2019-02-19T01:33:35.437Z,99.30
2019-02-19T01:36:25.577Z,99.30
2019-02-19T01:38:55.010Z,99.50
2019-02-19T01:41:24.996Z,99.10
2019-02-19T01:43:57.493Z,99.00
2019-02-19T01:46:26.313Z,98.80
2019-02-19T01:48:56.835Z,98.80
2019-02-19T01:51:26.134Z,98.60
2019-02-19T01:53:54.973Z,98.80
2019-02-19T01:56:23.869Z,98.90
2019-02-19T01:58:52.705Z,98.90
2019-02-19T02:01:21.861Z,99.10
2019-02-19T02:03:51.121Z,98.80
2019-02-19T02:06:19.945Z,98.80
2019-02-19T02:08:48.781Z,98.70
2019-02-19T02:11:17.605Z,98.80
2019-02-19T02:13:46.439Z,98.90
2019-02-19T02:16:15.329Z,99.20
2019-02-19T02:18:44.153Z,99.10
2019-02-19T02:21:12.973Z,99.00
2019-02-19T02:23:41.818Z,98.90
2019-02-19T02:26:10.647Z,99.00
2019-02-19T02:28:39.778Z,99.10
2019-02-19T02:31:08.857Z,99.60
2019-02-19T02:33:37.689Z,99.40
2019-02-19T02:36:06.591Z,99.40
2019-02-19T02:38:35.410Z,99.60
2019-02-19T02:41:04.264Z,99.40
2019-02-19T02:43:33.161Z,99.40
2019-02-19T02:46:02.006Z,99.50
2019-02-19T02:48:30.844Z,99.80
2019-02-19T02:50:59.851Z,99.70
2019-02-19T02:53:28.797Z,99.90
2019-02-19T02:55:57.656Z,99.80
2019-02-19T02:58:26.576Z,99.90
2019-02-19T03:00:55.508Z,99.70
2019-02-19T03:03:24.500Z,99.90
2019-02-19T03:06:18.349Z,99.90
2019-02-19T03:08:47.249Z,99.90
2019-02-19T03:11:16.369Z,99.90
2019-02-19T03:13:45.491Z,99.90
2019-02-19T03:16:14.754Z,99.90
2019-02-19T03:18:43.577Z,99.90
2019-02-19T03:21:12.403Z,99.90
2019-02-19T03:23:41.217Z,99.90
2019-02-19T03:26:10.114Z,99.90
2019-02-19T03:28:38.925Z,99.90
2019-02-19T03:31:08.043Z,99.90
2019-02-19T03:33:36.847Z,99.90
2019-02-19T03:36:06.314Z,99.90
2019-02-19T03:38:35.133Z,99.90
2019-02-19T03:41:04.110Z,99.90
2019-02-19T03:43:32.934Z,99.90
2019-02-19T03:46:01.762Z,99.90
2019-02-19T03:48:30.586Z,99.90
2019-02-19T03:50:59.409Z,99.90
2019-02-19T03:53:28.383Z,99.90
2019-02-19T03:55:57.214Z,99.90
2019-02-19T03:58:26.418Z,99.90
2019-02-19T04:00:55.390Z,99.90
2019-02-19T04:03:24.486Z,99.90
2019-02-19T04:05:53.323Z,99.90
2019-02-19T04:08:22.145Z,99.90
2019-02-19T04:10:51.042Z,99.90
2019-02-19T04:13:19.858Z,99.90
2019-02-19T04:15:48.968Z,99.90
2019-02-19T04:18:18.057Z,99.90
2019-02-19T04:20:47.142Z,99.90
2019-02-19T04:23:16.225Z,99.90
2019-02-19T04:25:45.053Z,99.90
2019-02-19T04:28:13.873Z,99.90
2019-02-19T04:30:42.770Z,99.90
2019-02-19T04:33:11.587Z,99.90
2019-02-19T04:35:40.419Z,99.90
2019-02-19T04:38:09.230Z,99.90
2019-02-19T04:40:38.478Z,99.90
2019-02-19T04:43:07.553Z,99.90
2019-02-19T04:45:36.457Z,99.90
2019-02-19T04:48:05.719Z,99.90
2019-02-19T04:50:34.554Z,99.90
2019-02-19T04:53:03.394Z,99.90
2019-02-19T04:55:32.251Z,99.90
2019-02-19T04:58:01.105Z,99.90
2019-02-19T05:00:30.052Z,99.90
2019-02-19T05:02:58.915Z,99.90
2019-02-19T05:05:27.923Z,99.90
2019-02-19T05:07:56.783Z,99.90
2019-02-19T05:10:25.640Z,99.90
2019-02-19T05:12:54.563Z,99.90
2019-02-19T05:15:23.484Z,99.90
2019-02-19T05:17:52.322Z,99.90
2019-02-19T05:20:21.171Z,99.90
2019-02-19T05:22:49.991Z,99.90
2019-02-19T05:25:19.167Z,99.90
2019-02-19T05:27:47.987Z,99.90
2019-02-19T05:30:16.814Z,99.90
2019-02-19T05:32:46.261Z,99.90
2019-02-19T05:35:15.698Z,99.90
2019-02-19T05:37:45.305Z,99.90
2019-02-19T05:40:14.753Z,99.90
2019-02-19T05:42:43.649Z,99.90
2019-02-19T05:45:12.717Z,99.90
2019-02-19T05:47:41.545Z,99.90
2019-02-19T05:50:10.535Z,99.90
2019-02-19T05:52:39.378Z,99.90
2019-02-19T05:55:08.457Z,99.90
2019-02-19T05:57:37.357Z,99.90
2019-02-19T06:00:07.646Z,99.90
2019-02-19T06:02:36.801Z,99.90
2019-02-19T06:05:07.581Z,99.90
2019-02-19T06:07:36.665Z,99.90
2019-02-19T06:10:06.649Z,99.90
2019-02-19T06:12:35.502Z,99.90
2019-02-19T06:15:05.523Z,99.90
2019-02-19T06:17:34.437Z,99.90
2019-02-19T06:20:03.422Z,99.90
2019-02-19T06:22:32.257Z,99.90
2019-02-19T06:25:01.350Z,99.90
2019-02-19T06:27:30.182Z,99.90
2019-02-19T06:29:58.999Z,99.90
2019-02-19T06:32:27.832Z,99.90
2019-02-19T06:34:56.897Z,99.90
2019-02-19T06:37:25.817Z,99.90
2019-02-19T06:39:54.640Z,99.90
2019-02-19T06:42:23.610Z,99.90
2019-02-19T06:44:52.437Z,99.90
2019-02-19T06:47:21.270Z,99.90
2019-02-19T06:49:50.094Z,99.90
2019-02-19T06:52:18.941Z,99.90
2019-02-19T06:54:47.770Z,99.90
2019-02-19T06:57:16.610Z,99.90
2019-02-19T06:59:45.689Z,99.90
2019-02-19T07:02:21.402Z,99.90
2019-02-19T07:04:53.826Z,99.90
2019-02-19T07:07:22.675Z,99.90
2019-02-19T07:09:51.500Z,99.90
2019-02-19T07:12:20.413Z,99.90
2019-02-19T07:14:49.312Z,99.90
2019-02-19T07:17:18.145Z,99.90
2019-02-19T07:19:46.965Z,99.90
2019-02-19T07:22:15.952Z,99.90
2019-02-19T07:24:44.777Z,99.90
2019-02-19T07:27:13.610Z,99.90
2019-02-19T07:29:43.345Z,99.90
2019-02-19T07:32:12.178Z,99.90
2019-02-19T07:34:41.072Z,99.90
2019-02-19T07:37:10.012Z,99.90
2019-02-19T07:39:38.841Z,99.90
2019-02-19T07:42:07.686Z,99.80
2019-02-19T07:44:36.661Z,99.50
2019-02-19T07:47:05.502Z,99.00
2019-02-19T07:49:34.326Z,99.30
2019-02-19T07:52:03.169Z,98.80
2019-02-19T07:54:32.642Z,99.60
2019-02-19T07:57:01.707Z,98.20
2019-02-19T07:59:30.665Z,97.80
2019-02-19T08:01:59.769Z,97.30
2019-02-19T08:04:29.061Z,96.80
2019-02-19T08:06:58.129Z,96.40
2019-02-19T08:09:26.951Z,96.20
2019-02-19T08:11:55.839Z,95.80
2019-02-19T08:14:24.733Z,95.70
2019-02-19T08:16:53.553Z,95.40
2019-02-19T08:19:22.623Z,94.90
2019-02-19T08:21:51.507Z,94.90
2019-02-19T08:24:20.341Z,94.30
2019-02-19T08:26:49.158Z,94.20
2019-02-19T08:29:18.226Z,94.00
2019-02-19T08:31:47.035Z,94.20
2019-02-19T08:34:15.861Z,94.00
2019-02-19T08:36:44.706Z,93.90
2019-02-19T08:39:13.777Z,93.80
2019-02-19T08:41:42.836Z,93.70
2019-02-19T08:44:11.811Z,93.40
2019-02-19T08:46:40.635Z,93.30
2019-02-19T08:49:09.478Z,93.00
2019-02-19T08:51:38.302Z,93.00
2019-02-19T08:54:07.304Z,92.90
2019-02-19T08:56:36.123Z,92.50
2019-02-19T08:59:04.966Z,91.70
2019-02-19T09:01:33.806Z,91.20
2019-02-19T09:04:02.653Z,90.90
2019-02-19T09:06:31.488Z,90.70
2019-02-19T09:09:00.318Z,90.80
2019-02-19T09:11:29.234Z,90.50
2019-02-19T09:13:58.325Z,89.90
2019-02-19T09:16:27.159Z,90.50
2019-02-19T09:18:56.026Z,88.10
2019-02-19T09:21:24.954Z,86.80
2019-02-19T09:23:53.890Z,85.90
2019-02-19T09:26:24.859Z,86.10
2019-02-19T09:28:53.794Z,83.50
2019-02-19T09:31:22.738Z,82.20
2019-02-19T09:33:51.613Z,82.20
2019-02-19T09:36:20.480Z,81.60
2019-02-19T09:38:49.415Z,80.00
2019-02-19T09:41:18.351Z,80.50
2019-02-19T09:43:47.297Z,79.70
2019-02-19T09:46:16.241Z,78.30
2019-02-19T09:48:45.107Z,78.70
2019-02-19T09:51:13.963Z,79.20
2019-02-19T09:53:42.912Z,77.10
2019-02-19T09:56:11.832Z,76.30
2019-02-19T09:58:40.773Z,75.90
2019-02-19T10:01:09.707Z,74.80
2019-02-19T10:03:39.562Z,74.00
2019-02-19T10:06:08.407Z,74.10
2019-02-19T10:08:37.279Z,73.80
2019-02-19T10:11:06.126Z,72.70
2019-02-19T10:13:34.958Z,73.60
2019-02-19T10:16:03.883Z,72.30
2019-02-19T10:18:33.042Z,71.40
2019-02-19T10:21:01.972Z,72.40
2019-02-19T10:23:30.801Z,71.90
2019-02-19T10:25:59.646Z,72.10
2019-02-19T10:28:28.491Z,71.00
2019-02-19T10:30:57.692Z,70.40
2019-02-19T10:33:26.609Z,70.10
2019-02-19T10:35:55.454Z,70.40
2019-02-19T10:38:24.269Z,70.20
2019-02-19T10:40:53.101Z,70.00
2019-02-19T10:43:23.481Z,67.60
2019-02-19T10:45:52.596Z,69.40
2019-02-19T10:48:21.415Z,68.30
2019-02-19T10:50:50.313Z,67.70
2019-02-19T10:53:19.453Z,65.70
2019-02-19T10:55:48.538Z,65.50
2019-02-19T10:58:23.007Z,65.00
2019-02-19T11:00:47.908Z,64.40
2019-02-19T11:03:16.881Z,64.50
2019-02-19T11:05:45.717Z,63.60
2019-02-19T11:08:14.550Z,63.80
2019-02-19T11:10:43.453Z,63.30
2019-02-19T11:13:12.286Z,60.50
2019-02-19T11:15:41.310Z,60.70
2019-02-19T11:18:10.490Z,59.90
2019-02-19T11:20:39.321Z,59.80
2019-02-19T11:23:08.159Z,58.50
2019-02-19T11:25:37.281Z,58.00
2019-02-19T11:28:06.474Z,58.50
2019-02-19T11:30:35.377Z,59.00
2019-02-19T11:33:04.223Z,58.60
2019-02-19T11:35:33.037Z,59.20
2019-02-19T11:38:02.139Z,59.70
2019-02-19T11:40:30.958Z,60.10
2019-02-19T11:42:59.793Z,60.70
2019-02-19T11:45:28.862Z,61.30
2019-02-19T11:47:57.841Z,61.70
2019-02-19T11:50:26.966Z,61.90
2019-02-19T11:52:55.873Z,61.80
2019-02-19T11:55:24.845Z,62.20
2019-02-19T11:57:53.705Z,62.10
2019-02-19T12:00:27.470Z,62.20
2019-02-19T12:02:56.726Z,62.60
2019-02-19T12:05:25.550Z,63.40
2019-02-19T12:07:54.413Z,62.90
2019-02-19T12:10:23.529Z,63.50
2019-02-19T12:12:52.358Z,62.40
2019-02-19T12:15:21.279Z,62.90
2019-02-19T12:17:50.123Z,62.50
2019-02-19T12:20:19.285Z,62.80
2019-02-19T12:22:48.121Z,62.60
2019-02-19T12:25:17.257Z,62.80
2019-02-19T12:27:46.177Z,63.70
2019-02-19T12:30:15.561Z,63.30
2019-02-19T12:32:44.477Z,63.00
2019-02-19T12:35:13.454Z,63.20
2019-02-19T12:37:42.433Z,63.20
2019-02-19T12:40:11.746Z,63.60
2019-02-19T12:42:40.654Z,64.00
2019-02-19T12:45:10.275Z,63.70
2019-02-19T12:47:39.285Z,64.10
2019-02-19T12:50:10.102Z,63.60
2019-02-19T12:52:39.077Z,61.10
2019-02-19T12:55:08.902Z,61.70
2019-02-19T12:57:38.045Z,61.60
2019-02-19T13:00:09.450Z,61.00
2019-02-19T13:02:38.664Z,60.80
2019-02-19T13:05:09.276Z,61.60
2019-02-19T13:07:38.173Z,61.60
2019-02-19T13:10:07.810Z,61.20
2019-02-19T13:12:36.654Z,61.60
2019-02-19T13:15:06.901Z,61.10
2019-02-19T13:17:36.273Z,61.20
2019-02-19T13:20:05.590Z,61.80
2019-02-19T13:22:34.421Z,61.80
2019-02-19T13:25:03.342Z,61.00
2019-02-19T13:27:32.166Z,61.50
2019-02-19T13:30:01.314Z,60.70
2019-02-19T13:32:30.646Z,60.10
2019-02-19T13:34:59.805Z,58.50
2019-02-19T13:37:28.701Z,56.70
2019-02-19T13:39:57.630Z,55.10
2019-02-19T13:42:26.946Z,55.50
2019-02-19T13:44:56.162Z,55.10
2019-02-19T13:47:24.990Z,55.00
2019-02-19T13:49:53.821Z,54.30
2019-02-19T13:52:41.723Z,53.90
2019-02-19T13:55:14.842Z,52.60
2019-02-19T13:57:43.706Z,53.50
2019-02-19T14:00:18.243Z,53.10
2019-02-19T14:02:47.253Z,52.70
2019-02-19T14:05:16.262Z,52.10
2019-02-19T14:07:45.107Z,50.40
2019-02-19T14:10:14.102Z,49.40
2019-02-19T14:12:43.234Z,49.90
2019-02-19T14:15:22.725Z,49.90
2019-02-19T14:17:51.922Z,49.60
2019-02-19T14:20:29.630Z,49.70
2019-02-19T14:23:11.542Z,50.60
2019-02-19T14:25:49.761Z,49.00
2019-02-19T14:28:39.154Z,50.70
2019-02-19T14:31:37.005Z,49.60
2019-02-19T14:34:24.259Z,49.10
2019-02-19T14:37:30.778Z,50.10
2019-02-19T14:40:17.434Z,51.10
2019-02-19T14:43:04.818Z,52.30
2019-02-19T14:45:45.592Z,52.10
2019-02-19T14:48:32.269Z,52.60
2019-02-19T14:51:08.869Z,53.40
2019-02-19T14:54:00.101Z,55.10
2019-02-19T14:56:45.571Z,56.70
2019-02-19T14:59:30.959Z,57.00
2019-02-19T15:02:21.857Z,58.00
2019-02-19T15:05:02.897Z,58.40
2019-02-19T15:07:53.922Z,58.90
2019-02-19T15:10:51.485Z,59.80
2019-02-19T15:13:30.909Z,59.80
2019-02-19T15:16:17.599Z,60.00
2019-02-19T15:19:14.098Z,60.40
2019-02-19T15:22:16.313Z,60.60
2019-02-19T15:25:04.507Z,61.10
2019-02-19T15:28:07.849Z,61.70
2019-02-19T15:30:54.753Z,62.20
2019-02-19T15:33:57.801Z,62.50
2019-02-19T15:36:37.014Z,62.90
2019-02-19T15:39:28.683Z,63.40
2019-02-19T15:42:34.826Z,63.00
2019-02-19T15:45:22.861Z,63.30
2019-02-19T15:48:11.466Z,63.60
2019-02-19T15:50:58.343Z,64.50
2019-02-19T15:53:45.821Z,63.80
2019-02-19T15:56:32.222Z,63.50
2019-02-19T15:59:26.581Z,64.00
2019-02-19T16:02:05.281Z,64.50
2019-02-19T16:04:49.384Z,65.00
2019-02-19T16:07:36.353Z,65.10
2019-02-19T16:10:24.718Z,65.60
2019-02-19T16:13:04.093Z,66.10
2019-02-19T16:15:52.081Z,66.60
2019-02-19T16:18:34.837Z,67.30
2019-02-19T16:21:10.686Z,67.50
2019-02-19T16:24:04.753Z,67.80
2019-02-19T16:26:52.650Z,69.40
2019-02-19T16:29:42.877Z,71.10
2019-02-19T16:32:30.012Z,72.10
2019-02-19T16:35:17.920Z,73.10
2019-02-19T16:38:00.869Z,73.20
2019-02-19T16:40:47.509Z,72.60
2019-02-19T16:43:54.117Z,72.40
2019-02-19T16:46:51.313Z,72.20
2019-02-19T16:49:42.186Z,71.70
2019-02-19T16:52:30.086Z,72.50
2019-02-19T16:55:21.294Z,72.60
2019-02-19T16:58:15.218Z,72.60
2019-02-19T17:01:03.111Z,72.60
2019-02-19T17:03:37.544Z,72.80
2019-02-19T17:06:14.009Z,73.20
2019-02-19T17:09:01.934Z,73.10
2019-02-19T17:12:08.037Z,73.10
2019-02-19T17:14:58.010Z,72.90
2019-02-19T17:18:01.334Z,73.00
2019-02-19T17:20:39.105Z,73.60
2019-02-19T17:23:13.617Z,74.00
2019-02-19T17:25:54.107Z,74.40
2019-02-19T17:28:34.030Z,74.50
2019-02-19T17:31:12.130Z,74.60
2019-02-19T17:34:04.066Z,74.90
2019-02-19T17:36:45.063Z,75.10
2019-02-19T17:39:22.653Z,75.40
2019-02-19T17:42:10.623Z,75.70
2019-02-19T17:45:07.925Z,76.10
2019-02-19T17:48:03.622Z,76.20
2019-02-19T17:50:40.257Z,76.20
2019-02-19T17:53:25.480Z,76.80
2019-02-19T17:56:02.366Z,77.20
2019-02-19T17:58:36.981Z,77.70
2019-02-19T18:01:40.355Z,77.70
2019-02-19T18:04:28.274Z,78.50
2019-02-19T18:07:21.990Z,79.50
2019-02-19T18:10:12.817Z,79.70
2019-02-19T18:12:56.118Z,80.40
2019-02-19T18:15:57.650Z,80.10
2019-02-19T18:18:39.178Z,80.90
2019-02-19T18:21:08.042Z,82.90
2019-02-19T18:23:36.889Z,83.00
2019-02-19T18:26:05.713Z,82.40
2019-02-19T18:28:34.549Z,82.30
2019-02-19T18:31:03.467Z,82.30
2019-02-19T18:33:32.373Z,82.40
2019-02-19T18:36:01.203Z,82.50
2019-02-19T18:38:31.732Z,83.00
2019-02-19T18:41:00.595Z,83.40
2019-02-19T18:43:29.581Z,83.70
2019-02-19T18:45:58.514Z,84.10
2019-02-19T18:48:27.402Z,84.70
2019-02-19T18:50:58.461Z,85.30
2019-02-19T18:53:27.450Z,85.80
2019-02-19T18:55:57.594Z,86.50
2019-02-19T18:58:26.514Z,87.00
2019-02-19T19:00:55.551Z,86.80
2019-02-19T19:03:24.495Z,87.00
2019-02-19T19:05:53.452Z,89.10
2019-02-19T19:08:22.461Z,89.60
2019-02-19T19:10:51.400Z,90.30
2019-02-19T19:13:20.273Z,90.60
2019-02-19T19:15:49.305Z,91.30
2019-02-19T19:18:19.297Z,91.80
2019-02-19T19:20:48.498Z,92.00
2019-02-19T19:23:17.647Z,92.70
2019-02-19T19:25:46.491Z,93.00
2019-02-19T19:28:15.484Z,93.80
2019-02-19T19:30:44.305Z,93.70
2019-02-19T19:33:13.138Z,94.20
2019-02-19T19:35:41.969Z,95.10
2019-02-19T19:38:10.823Z,95.50
2019-02-19T19:40:39.669Z,97.60
2019-02-19T19:43:08.606Z,97.70
2019-02-19T19:45:37.445Z,97.50
2019-02-19T19:48:06.786Z,97.60
2019-02-19T19:50:35.742Z,99.50
2019-02-19T19:53:04.753Z,99.90
2019-02-19T19:55:34.597Z,99.90
2019-02-19T19:58:04.097Z,99.90
2019-02-19T20:00:33.627Z,99.90
2019-02-19T20:03:03.532Z,99.90
2019-02-19T20:05:32.977Z,99.90
2019-02-19T20:08:02.534Z,99.90
2019-02-19T20:10:38.089Z,99.90
2019-02-19T20:13:08.732Z,99.90
2019-02-19T20:15:47.282Z,99.90
2019-02-19T20:18:16.261Z,99.90
2019-02-19T20:20:45.259Z,99.90
2019-02-19T20:23:14.173Z,99.90
2019-02-19T20:25:44.737Z,99.90
2019-02-19T20:28:14.279Z,99.90
2019-02-19T20:30:43.505Z,99.90
2019-02-19T20:33:12.772Z,99.90
2019-02-19T20:35:42.041Z,99.90
2019-02-19T20:38:10.954Z,99.90
2019-02-19T20:40:39.784Z,99.90
2019-02-19T20:43:08.646Z,99.90
2019-02-19T20:45:37.618Z,99.90
2019-02-19T20:48:06.473Z,99.90
2019-02-19T20:50:35.306Z,99.90
2019-02-19T20:53:04.299Z,99.90
2019-02-19T20:55:36.931Z,99.90
2019-02-19T20:58:03.950Z,99.90
2019-02-19T21:00:32.794Z,99.90
2019-02-19T21:03:01.634Z,99.90
2019-02-19T21:05:30.469Z,99.90
2019-02-19T21:07:59.566Z,99.90
2019-02-19T21:10:28.398Z,99.90
2019-02-19T21:12:57.598Z,99.90
2019-02-19T21:15:26.519Z,99.90
2019-02-19T21:20:29.261Z,99.90
2019-02-19T21:22:58.166Z,99.90
2019-02-19T21:25:31.047Z,99.90
2019-02-19T21:27:57.558Z,99.90
2019-02-19T21:30:26.390Z,99.90
2019-02-19T21:32:55.269Z,99.90
2019-02-19T21:35:24.117Z,99.90
2019-02-19T21:37:52.984Z,99.90
2019-02-19T21:40:21.894Z,99.90
2019-02-19T21:42:50.717Z,99.90
2019-02-19T21:45:19.629Z,99.90
2019-02-19T21:47:48.456Z,99.90
2019-02-19T21:50:17.306Z,99.90
2019-02-19T21:52:46.182Z,99.90
2019-02-19T21:55:15.099Z,99.90
2019-02-19T21:57:43.953Z,99.90
2019-02-19T22:00:14.624Z,99.90
2019-02-19T22:02:43.513Z,99.90
2019-02-19T22:05:12.501Z,99.90
2019-02-19T22:07:41.434Z,99.90
2019-02-19T22:10:10.481Z,99.90
2019-02-19T22:12:39.317Z,99.90
2019-02-19T22:15:09.188Z,99.90
2019-02-19T22:17:38.147Z,99.90
2019-02-19T22:20:10.769Z,99.90
2019-02-19T22:22:39.677Z,99.90
2019-02-19T22:25:09.321Z,99.90
2019-02-19T22:27:38.142Z,99.90
2019-02-19T22:30:07.722Z,99.90
2019-02-19T22:32:36.629Z,99.90
2019-02-19T22:35:05.958Z,99.90
2019-02-19T22:37:34.979Z,99.90
2019-02-19T22:40:05.100Z,99.90
2019-02-19T22:42:34.051Z,99.90
2019-02-19T22:45:02.966Z,99.90
2019-02-19T22:47:33.422Z,99.90
2019-02-19T22:50:02.370Z,99.90
2019-02-19T22:52:31.583Z,99.90
2019-02-19T22:55:09.683Z,99.90
2019-02-19T22:57:38.691Z,99.90
2019-02-19T23:00:11.531Z,99.90
2019-02-19T23:02:41.125Z,99.90
2019-02-19T23:05:10.303Z,99.90
2019-02-19T23:07:39.225Z,99.90
2019-02-19T23:10:08.223Z,99.90
2019-02-19T23:12:37.250Z,99.90
2019-02-19T23:15:06.270Z,99.90
2019-02-19T23:17:35.117Z,99.90
2019-02-19T23:20:04.171Z,99.90
2019-02-19T23:22:33.034Z,99.90
2019-02-19T23:25:01.852Z,99.90
2019-02-19T23:27:30.720Z,99.90
2019-02-19T23:29:59.571Z,99.90
2019-02-19T23:32:28.463Z,99.90
2019-02-19T23:35:15.449Z,99.90
2019-02-19T23:37:44.389Z,99.90
2019-02-19T23:40:13.297Z,99.90
2019-02-19T23:42:42.137Z,99.90
2019-02-19T23:45:11.033Z,99.90
2019-02-19T23:47:40.014Z,99.90
2019-02-19T23:50:08.910Z,99.90
2019-02-19T23:52:37.817Z,99.90
2019-02-19T23:55:07.152Z,99.90
2019-02-19T23:57:36.638Z,99.90
